Meath Environmental Platform

Observations for Trim Market St

Time AQI Temp °C Hum % Pres Pa CO μg/m³ H₂S μg/m³ NO μg/m³ NO₂ μg/m³ O₃ μg/m³ SO₂ μg/m³ PM1 μg/m³ PM2.5 μg/m³ PM10 μg/m³
Monday 13 July 2026
22:20 1 19.9 54 56,486 0 0 0 12.07 25.9 0 2.14 3.82 4.64
22:19 1 19.9 54 56,413 0 0 0 12.87 25.48 0 2.14 4.33 5.36
22:18 1 20 54 56,370 0 0 0 11.87 24.19 0 2.85 5.36 6.8
22:17 1 20 54 56,329 0 0 0 9.98 32.84 0 4.28 6.38 8.98
22:16 1 20 53 56,268 0 0 0 9.4 33.99 0 2.14 4.35 6.08
22:15 1 20 53 56,219 0 0 0 6.9 30.36 0 2.14 4.35 5.35
22:13 1 20.1 53 56,177 0 0.89 0 11.31 38.48 0 1.43 3.35 3.89
22:12 1 20.1 53 56,123 0 0 0 8.73 31.91 0 2.14 4.89 6.8
22:07 1 20.2 52 55,912 0 0.29 0 12.07 35.11 0 2.14 4.92 6.06
22:03 1 20.3 52 55,892 0 0.36 0 12.99 35.92 0 1.43 3.4 3.85
21:56 1 20.5 51 56,228 0 0 0 8.42 31.39 0 0.71 3.94 4.57
21:55 1 20.6 51 56,388 0 0 0 7.4 34.16 0 1.43 3.44 3.83
21:54 1 20.6 51 56,627 0 0 0 8.12 33.03 0 0.71 3.96 4.56
21:53 1 20.6 51 56,917 0 0 0 9.34 30.06 0 0.71 3.45 5.3
21:52 1 20.7 50 57,249 0 0 0 7.13 32.51 0 0.71 2.95 3.07
21:50 1 20.7 50 57,750 0 0 0 7.85 33.96 0 0.71 3.47 3.81
21:48 1 20.8 50 58,327 0 0 0 7.66 33.76 0 1.43 3.48 3.8
21:47 1 20.9 50 58,627 0 0 0 10.65 29.48 0 0.71 3.49 4.54
21:45 1 20.9 50 59,334 0 0 0 6.98 32.95 0 0.71 3.5 3.79
21:44 1 20.9 50 59,723 0 0 0 7.39 32.43 0 1.43 4.02 4.53